sensor_id;sensor_type;location;lat;lon;timestamp;P1;durP1;ratioP1;P2;durP2;ratioP2
74959;SDS011;63518;49.572;1.106;2023-12-20T00:02:10;274.20;;;232.43;;
74959;SDS011;63518;49.572;1.106;2023-12-20T00:04:36;296.23;;;256.05;;
74959;SDS011;63518;49.572;1.106;2023-12-20T00:07:03;290.10;;;245.48;;
74959;SDS011;63518;49.572;1.106;2023-12-20T00:09:30;310.83;;;276.80;;
74959;SDS011;63518;49.572;1.106;2023-12-20T00:11:57;285.73;;;242.02;;
74959;SDS011;63518;49.572;1.106;2023-12-20T00:14:24;300.63;;;267.42;;
74959;SDS011;63518;49.572;1.106;2023-12-20T00:16:51;299.25;;;266.27;;
74959;SDS011;63518;49.572;1.106;2023-12-20T00:19:17;311.88;;;277.85;;
74959;SDS011;63518;49.572;1.106;2023-12-20T00:21:44;295.15;;;263.15;;
74959;SDS011;63518;49.572;1.106;2023-12-20T00:24:11;269.45;;;240.80;;
74959;SDS011;63518;49.572;1.106;2023-12-20T00:26:38;283.55;;;251.60;;
74959;SDS011;63518;49.572;1.106;2023-12-20T00:29:04;290.92;;;259.35;;
74959;SDS011;63518;49.572;1.106;2023-12-20T00:31:31;299.05;;;266.20;;
74959;SDS011;63518;49.572;1.106;2023-12-20T00:33:58;292.80;;;260.65;;
74959;SDS011;63518;49.572;1.106;2023-12-20T00:36:25;304.77;;;271.08;;
74959;SDS011;63518;49.572;1.106;2023-12-20T00:38:51;306.85;;;272.95;;
74959;SDS011;63518;49.572;1.106;2023-12-20T00:41:18;301.52;;;269.58;;
74959;SDS011;63518;49.572;1.106;2023-12-20T00:43:45;295.58;;;264.10;;
74959;SDS011;63518;49.572;1.106;2023-12-20T00:46:11;298.73;;;267.15;;
74959;SDS011;63518;49.572;1.106;2023-12-20T00:48:38;318.83;;;285.40;;
74959;SDS011;63518;49.572;1.106;2023-12-20T00:51:05;317.77;;;284.58;;
74959;SDS011;63518;49.572;1.106;2023-12-20T00:53:32;325.80;;;292.42;;
74959;SDS011;63518;49.572;1.106;2023-12-20T00:55:59;333.52;;;298.88;;
74959;SDS011;63518;49.572;1.106;2023-12-20T00:58:26;334.27;;;300.05;;
74959;SDS011;63518;49.572;1.106;2023-12-20T01:00:54;323.05;;;289.98;;
74959;SDS011;63518;49.572;1.106;2023-12-20T01:03:21;321.40;;;288.85;;
74959;SDS011;63518;49.572;1.106;2023-12-20T01:05:48;324.88;;;291.38;;
74959;SDS011;63518;49.572;1.106;2023-12-20T01:08:14;332.13;;;298.48;;
74959;SDS011;63518;49.572;1.106;2023-12-20T01:10:41;323.80;;;290.27;;
74959;SDS011;63518;49.572;1.106;2023-12-20T01:13:08;325.15;;;291.58;;
74959;SDS011;63518;49.572;1.106;2023-12-20T01:15:35;326.45;;;292.65;;
74959;SDS011;63518;49.572;1.106;2023-12-20T01:18:02;311.17;;;278.63;;
74959;SDS011;63518;49.572;1.106;2023-12-20T01:20:29;315.15;;;281.77;;
74959;SDS011;63518;49.572;1.106;2023-12-20T01:22:55;322.50;;;288.67;;
74959;SDS011;63518;49.572;1.106;2023-12-20T01:25:22;297.35;;;265.17;;
74959;SDS011;63518;49.572;1.106;2023-12-20T01:27:49;315.77;;;282.13;;
74959;SDS011;63518;49.572;1.106;2023-12-20T01:30:16;317.42;;;283.08;;
74959;SDS011;63518;49.572;1.106;2023-12-20T01:32:43;334.05;;;297.92;;
74959;SDS011;63518;49.572;1.106;2023-12-20T01:35:10;330.15;;;294.63;;
74959;SDS011;63518;49.572;1.106;2023-12-20T01:37:39;326.67;;;291.48;;
74959;SDS011;63518;49.572;1.106;2023-12-20T01:40:05;343.30;;;306.98;;
74959;SDS011;63518;49.572;1.106;2023-12-20T01:42:33;337.67;;;301.75;;
74959;SDS011;63518;49.572;1.106;2023-12-20T01:44:59;227.27;;;205.77;;
74959;SDS011;63518;49.572;1.106;2023-12-20T01:47:26;328.35;;;292.70;;
74959;SDS011;63518;49.572;1.106;2023-12-20T01:49:53;317.75;;;283.75;;
74959;SDS011;63518;49.572;1.106;2023-12-20T01:52:23;317.33;;;283.35;;
74959;SDS011;63518;49.572;1.106;2023-12-20T01:54:52;318.33;;;283.80;;
74959;SDS011;63518;49.572;1.106;2023-12-20T01:57:21;318.50;;;284.25;;
74959;SDS011;63518;49.572;1.106;2023-12-20T01:59:48;301.58;;;269.95;;
74959;SDS011;63518;49.572;1.106;2023-12-20T02:02:14;331.77;;;296.52;;
74959;SDS011;63518;49.572;1.106;2023-12-20T02:04:41;342.48;;;306.67;;
74959;SDS011;63518;49.572;1.106;2023-12-20T02:07:08;348.50;;;312.35;;
74959;SDS011;63518;49.572;1.106;2023-12-20T02:09:36;336.08;;;301.77;;
74959;SDS011;63518;49.572;1.106;2023-12-20T02:12:04;349.60;;;313.23;;
74959;SDS011;63518;49.572;1.106;2023-12-20T02:14:32;299.60;;;267.55;;
74959;SDS011;63518;49.572;1.106;2023-12-20T02:16:58;314.52;;;280.60;;
74959;SDS011;63518;49.572;1.106;2023-12-20T02:19:25;348.55;;;311.33;;
74959;SDS011;63518;49.572;1.106;2023-12-20T02:22:04;346.17;;;310.30;;
74959;SDS011;63518;49.572;1.106;2023-12-20T02:24:32;358.20;;;320.85;;
74959;SDS011;63518;49.572;1.106;2023-12-20T02:26:59;368.23;;;330.10;;
74959;SDS011;63518;49.572;1.106;2023-12-20T02:29:25;364.25;;;326.17;;
74959;SDS011;63518;49.572;1.106;2023-12-20T02:31:53;362.90;;;325.15;;
74959;SDS011;63518;49.572;1.106;2023-12-20T02:34:20;350.50;;;313.73;;
74959;SDS011;63518;49.572;1.106;2023-12-20T02:36:46;362.27;;;324.27;;
74959;SDS011;63518;49.572;1.106;2023-12-20T02:39:13;374.42;;;335.17;;
74959;SDS011;63518;49.572;1.106;2023-12-20T02:41:40;373.90;;;334.33;;
74959;SDS011;63518;49.572;1.106;2023-12-20T02:44:07;379.55;;;340.50;;
74959;SDS011;63518;49.572;1.106;2023-12-20T02:46:33;374.52;;;336.08;;
74959;SDS011;63518;49.572;1.106;2023-12-20T02:49:00;369.55;;;332.35;;
74959;SDS011;63518;49.572;1.106;2023-12-20T02:51:27;388.10;;;348.25;;
74959;SDS011;63518;49.572;1.106;2023-12-20T02:53:54;373.88;;;336.15;;
74959;SDS011;63518;49.572;1.106;2023-12-20T02:56:20;376.25;;;338.30;;
74959;SDS011;63518;49.572;1.106;2023-12-20T02:58:47;378.80;;;339.52;;
74959;SDS011;63518;49.572;1.106;2023-12-20T03:01:14;405.27;;;363.80;;
74959;SDS011;63518;49.572;1.106;2023-12-20T03:03:41;412.85;;;369.92;;
74959;SDS011;63518;49.572;1.106;2023-12-20T03:06:07;422.25;;;378.60;;
74959;SDS011;63518;49.572;1.106;2023-12-20T03:08:34;426.83;;;383.08;;
74959;SDS011;63518;49.572;1.106;2023-12-20T03:11:01;417.02;;;374.50;;
74959;SDS011;63518;49.572;1.106;2023-12-20T03:13:28;433.00;;;389.23;;
74959;SDS011;63518;49.572;1.106;2023-12-20T03:15:54;455.08;;;409.85;;
74959;SDS011;63518;49.572;1.106;2023-12-20T03:18:21;434.95;;;390.13;;
74959;SDS011;63518;49.572;1.106;2023-12-20T03:20:48;438.58;;;393.60;;
74959;SDS011;63518;49.572;1.106;2023-12-20T03:23:17;433.70;;;389.60;;
74959;SDS011;63518;49.572;1.106;2023-12-20T03:25:43;432.48;;;388.05;;
74959;SDS011;63518;49.572;1.106;2023-12-20T03:28:10;441.67;;;396.95;;
74959;SDS011;63518;49.572;1.106;2023-12-20T03:30:37;441.77;;;396.95;;
74959;SDS011;63518;49.572;1.106;2023-12-20T03:33:04;445.67;;;400.60;;
74959;SDS011;63518;49.572;1.106;2023-12-20T03:35:30;1.55;;;0.82;;
74959;SDS011;63518;49.572;1.106;2023-12-20T03:37:57;371.42;;;332.90;;
74959;SDS011;63518;49.572;1.106;2023-12-20T03:40:26;386.40;;;345.65;;
74959;SDS011;63518;49.572;1.106;2023-12-20T03:42:53;436.20;;;390.92;;
74959;SDS011;63518;49.572;1.106;2023-12-20T03:45:19;393.67;;;352.30;;
74959;SDS011;63518;49.572;1.106;2023-12-20T03:47:46;449.02;;;402.60;;
74959;SDS011;63518;49.572;1.106;2023-12-20T03:50:14;451.67;;;405.17;;
74959;SDS011;63518;49.572;1.106;2023-12-20T03:52:41;451.83;;;406.13;;
74959;SDS011;63518;49.572;1.106;2023-12-20T03:55:08;457.92;;;411.38;;
74959;SDS011;63518;49.572;1.106;2023-12-20T03:57:35;464.90;;;418.20;;
74959;SDS011;63518;49.572;1.106;2023-12-20T04:00:02;467.33;;;420.67;;
74959;SDS011;63518;49.572;1.106;2023-12-20T04:02:29;479.85;;;432.67;;
74959;SDS011;63518;49.572;1.106;2023-12-20T04:04:55;427.65;;;383.90;;
74959;SDS011;63518;49.572;1.106;2023-12-20T04:07:22;397.13;;;358.83;;
74959;SDS011;63518;49.572;1.106;2023-12-20T04:09:49;422.10;;;378.48;;
74959;SDS011;63518;49.572;1.106;2023-12-20T04:12:16;450.67;;;405.20;;
74959;SDS011;63518;49.572;1.106;2023-12-20T04:14:42;465.60;;;419.15;;
74959;SDS011;63518;49.572;1.106;2023-12-20T04:17:09;413.25;;;372.38;;
74959;SDS011;63518;49.572;1.106;2023-12-20T04:19:36;2.30;;;0.57;;
74959;SDS011;63518;49.572;1.106;2023-12-20T04:22:03;436.45;;;390.75;;
74959;SDS011;63518;49.572;1.106;2023-12-20T04:24:30;395.45;;;356.10;;
74959;SDS011;63518;49.572;1.106;2023-12-20T04:26:56;409.33;;;368.17;;
74959;SDS011;63518;49.572;1.106;2023-12-20T04:29:23;431.40;;;388.33;;
74959;SDS011;63518;49.572;1.106;2023-12-20T04:31:50;441.13;;;396.13;;
74959;SDS011;63518;49.572;1.106;2023-12-20T04:34:20;436.98;;;393.10;;
74959;SDS011;63518;49.572;1.106;2023-12-20T04:36:47;441.40;;;396.55;;
74959;SDS011;63518;49.572;1.106;2023-12-20T04:39:14;447.98;;;402.75;;
74959;SDS011;63518;49.572;1.106;2023-12-20T04:41:41;446.33;;;400.55;;
74959;SDS011;63518;49.572;1.106;2023-12-20T04:44:08;443.63;;;397.45;;
74959;SDS011;63518;49.572;1.106;2023-12-20T04:46:34;434.38;;;388.65;;
74959;SDS011;63518;49.572;1.106;2023-12-20T04:49:01;444.70;;;398.70;;
74959;SDS011;63518;49.572;1.106;2023-12-20T04:51:28;418.17;;;373.23;;
74959;SDS011;63518;49.572;1.106;2023-12-20T04:53:55;416.08;;;371.05;;
74959;SDS011;63518;49.572;1.106;2023-12-20T04:56:22;427.40;;;382.02;;
74959;SDS011;63518;49.572;1.106;2023-12-20T04:58:48;415.98;;;371.23;;
74959;SDS011;63518;49.572;1.106;2023-12-20T05:01:15;429.17;;;383.85;;
74959;SDS011;63518;49.572;1.106;2023-12-20T05:03:42;447.48;;;400.25;;
74959;SDS011;63518;49.572;1.106;2023-12-20T05:06:09;454.05;;;407.08;;
74959;SDS011;63518;49.572;1.106;2023-12-20T05:08:36;459.17;;;412.42;;
74959;SDS011;63518;49.572;1.106;2023-12-20T05:11:03;451.60;;;405.23;;
74959;SDS011;63518;49.572;1.106;2023-12-20T05:13:30;462.33;;;414.98;;
74959;SDS011;63518;49.572;1.106;2023-12-20T05:16:10;454.77;;;408.30;;
74959;SDS011;63518;49.572;1.106;2023-12-20T05:18:37;474.13;;;426.38;;
74959;SDS011;63518;49.572;1.106;2023-12-20T05:21:04;480.02;;;432.65;;
74959;SDS011;63518;49.572;1.106;2023-12-20T05:23:31;465.67;;;418.63;;
74959;SDS011;63518;49.572;1.106;2023-12-20T05:25:57;471.75;;;424.38;;
74959;SDS011;63518;49.572;1.106;2023-12-20T05:28:25;481.95;;;434.40;;
74959;SDS011;63518;49.572;1.106;2023-12-20T05:30:52;491.38;;;443.27;;
74959;SDS011;63518;49.572;1.106;2023-12-20T05:33:19;507.85;;;458.98;;
74959;SDS011;63518;49.572;1.106;2023-12-20T05:35:46;501.63;;;453.02;;
74959;SDS011;63518;49.572;1.106;2023-12-20T05:38:13;506.58;;;457.50;;
74959;SDS011;63518;49.572;1.106;2023-12-20T05:40:40;508.73;;;460.13;;
74959;SDS011;63518;49.572;1.106;2023-12-20T05:43:06;531.58;;;482.02;;
74959;SDS011;63518;49.572;1.106;2023-12-20T05:45:33;529.00;;;479.25;;
74959;SDS011;63518;49.572;1.106;2023-12-20T05:48:00;533.33;;;483.58;;
74959;SDS011;63518;49.572;1.106;2023-12-20T05:50:27;547.45;;;496.90;;
74959;SDS011;63518;49.572;1.106;2023-12-20T05:52:54;526.88;;;477.50;;
74959;SDS011;63518;49.572;1.106;2023-12-20T05:55:21;528.17;;;478.92;;
74959;SDS011;63518;49.572;1.106;2023-12-20T05:57:48;524.47;;;475.27;;
74959;SDS011;63518;49.572;1.106;2023-12-20T06:00:15;515.60;;;466.52;;
74959;SDS011;63518;49.572;1.106;2023-12-20T06:02:42;528.50;;;478.83;;
74959;SDS011;63518;49.572;1.106;2023-12-20T06:05:09;529.95;;;479.90;;
74959;SDS011;63518;49.572;1.106;2023-12-20T06:07:36;534.05;;;484.25;;
74959;SDS011;63518;49.572;1.106;2023-12-20T06:10:03;533.47;;;483.48;;
74959;SDS011;63518;49.572;1.106;2023-12-20T06:12:30;540.35;;;490.42;;
74959;SDS011;63518;49.572;1.106;2023-12-20T06:14:59;560.63;;;509.00;;
74959;SDS011;63518;49.572;1.106;2023-12-20T06:17:26;554.08;;;503.33;;
74959;SDS011;63518;49.572;1.106;2023-12-20T06:19:54;513.22;;;464.65;;
74959;SDS011;63518;49.572;1.106;2023-12-20T06:22:21;534.45;;;483.92;;
74959;SDS011;63518;49.572;1.106;2023-12-20T06:24:47;552.15;;;501.02;;
74959;SDS011;63518;49.572;1.106;2023-12-20T06:27:14;557.03;;;505.33;;
74959;SDS011;63518;49.572;1.106;2023-12-20T06:29:41;561.42;;;509.70;;
74959;SDS011;63518;49.572;1.106;2023-12-20T06:32:09;574.90;;;522.47;;
74959;SDS011;63518;49.572;1.106;2023-12-20T06:34:36;583.17;;;531.10;;
74959;SDS011;63518;49.572;1.106;2023-12-20T06:37:03;542.30;;;491.85;;
74959;SDS011;63518;49.572;1.106;2023-12-20T06:39:30;543.65;;;492.98;;
74959;SDS011;63518;49.572;1.106;2023-12-20T06:41:57;555.50;;;504.05;;
74959;SDS011;63518;49.572;1.106;2023-12-20T06:44:23;570.53;;;518.50;;
74959;SDS011;63518;49.572;1.106;2023-12-20T06:46:50;578.92;;;526.53;;
74959;SDS011;63518;49.572;1.106;2023-12-20T06:49:17;582.95;;;529.97;;
74959;SDS011;63518;49.572;1.106;2023-12-20T06:51:45;616.28;;;561.88;;
74959;SDS011;63518;49.572;1.106;2023-12-20T06:54:11;624.00;;;569.40;;
74959;SDS011;63518;49.572;1.106;2023-12-20T06:56:38;623.13;;;568.78;;
74959;SDS011;63518;49.572;1.106;2023-12-20T06:59:05;608.78;;;554.40;;
74959;SDS011;63518;49.572;1.106;2023-12-20T07:01:32;549.83;;;497.90;;
74959;SDS011;63518;49.572;1.106;2023-12-20T07:03:59;531.10;;;480.13;;
74959;SDS011;63518;49.572;1.106;2023-12-20T07:06:26;564.00;;;510.98;;
74959;SDS011;63518;49.572;1.106;2023-12-20T07:08:53;561.35;;;507.45;;
74959;SDS011;63518;49.572;1.106;2023-12-20T07:11:19;547.13;;;493.20;;
74959;SDS011;63518;49.572;1.106;2023-12-20T07:13:46;537.40;;;484.42;;
74959;SDS011;63518;49.572;1.106;2023-12-20T07:16:13;542.40;;;489.88;;
74959;SDS011;63518;49.572;1.106;2023-12-20T07:18:40;542.92;;;490.00;;
74959;SDS011;63518;49.572;1.106;2023-12-20T07:21:06;556.17;;;503.10;;
74959;SDS011;63518;49.572;1.106;2023-12-20T07:23:34;549.92;;;496.95;;
74959;SDS011;63518;49.572;1.106;2023-12-20T07:26:01;578.78;;;524.88;;
74959;SDS011;63518;49.572;1.106;2023-12-20T07:28:27;575.58;;;521.65;;
74959;SDS011;63518;49.572;1.106;2023-12-20T07:30:54;557.75;;;504.23;;
74959;SDS011;63518;49.572;1.106;2023-12-20T07:33:21;559.03;;;505.67;;
74959;SDS011;63518;49.572;1.106;2023-12-20T07:35:48;579.00;;;524.60;;
74959;SDS011;63518;49.572;1.106;2023-12-20T07:38:15;582.10;;;527.47;;
74959;SDS011;63518;49.572;1.106;2023-12-20T07:40:42;595.83;;;541.33;;
74959;SDS011;63518;49.572;1.106;2023-12-20T07:43:08;608.55;;;553.55;;
74959;SDS011;63518;49.572;1.106;2023-12-20T07:45:35;614.22;;;559.03;;
74959;SDS011;63518;49.572;1.106;2023-12-20T07:48:02;609.33;;;554.50;;
74959;SDS011;63518;49.572;1.106;2023-12-20T07:50:29;623.05;;;567.60;;
74959;SDS011;63518;49.572;1.106;2023-12-20T07:52:56;630.20;;;574.92;;
74959;SDS011;63518;49.572;1.106;2023-12-20T07:55:23;552.88;;;499.17;;
74959;SDS011;63518;49.572;1.106;2023-12-20T07:57:49;561.47;;;506.88;;
74959;SDS011;63518;49.572;1.106;2023-12-20T08:00:17;564.08;;;509.92;;
74959;SDS011;63518;49.572;1.106;2023-12-20T08:02:44;586.90;;;531.20;;
74959;SDS011;63518;49.572;1.106;2023-12-20T08:05:11;588.38;;;533.22;;
74959;SDS011;63518;49.572;1.106;2023-12-20T08:07:37;581.00;;;525.25;;
74959;SDS011;63518;49.572;1.106;2023-12-20T08:10:05;583.67;;;528.35;;
74959;SDS011;63518;49.572;1.106;2023-12-20T08:12:32;584.38;;;529.05;;
74959;SDS011;63518;49.572;1.106;2023-12-20T08:15:00;589.47;;;533.50;;
74959;SDS011;63518;49.572;1.106;2023-12-20T08:17:27;594.45;;;538.88;;
74959;SDS011;63518;49.572;1.106;2023-12-20T08:19:54;603.85;;;548.30;;
74959;SDS011;63518;49.572;1.106;2023-12-20T08:22:21;608.17;;;552.33;;
74959;SDS011;63518;49.572;1.106;2023-12-20T08:24:48;604.38;;;548.42;;
74959;SDS011;63518;49.572;1.106;2023-12-20T08:27:15;615.63;;;558.97;;
74959;SDS011;63518;49.572;1.106;2023-12-20T08:29:43;679.42;;;622.25;;
74959;SDS011;63518;49.572;1.106;2023-12-20T08:32:11;690.65;;;633.53;;
74959;SDS011;63518;49.572;1.106;2023-12-20T08:34:37;701.67;;;644.08;;
74959;SDS011;63518;49.572;1.106;2023-12-20T08:37:05;698.55;;;641.70;;
74959;SDS011;63518;49.572;1.106;2023-12-20T08:39:31;701.63;;;643.83;;
74959;SDS011;63518;49.572;1.106;2023-12-20T08:41:59;670.83;;;615.17;;
74959;SDS011;63518;49.572;1.106;2023-12-20T08:44:26;677.33;;;621.40;;
74959;SDS011;63518;49.572;1.106;2023-12-20T08:46:53;665.17;;;610.03;;
74959;SDS011;63518;49.572;1.106;2023-12-20T08:49:23;647.05;;;592.80;;
74959;SDS011;63518;49.572;1.106;2023-12-20T08:51:50;603.42;;;550.70;;
74959;SDS011;63518;49.572;1.106;2023-12-20T08:54:17;591.13;;;539.70;;
74959;SDS011;63518;49.572;1.106;2023-12-20T08:56:45;583.17;;;533.08;;
74959;SDS011;63518;49.572;1.106;2023-12-20T08:59:12;582.35;;;532.33;;
74959;SDS011;63518;49.572;1.106;2023-12-20T09:01:39;571.88;;;522.13;;
74959;SDS011;63518;49.572;1.106;2023-12-20T09:04:06;477.70;;;433.20;;
74959;SDS011;63518;49.572;1.106;2023-12-20T09:06:33;445.13;;;402.15;;
74959;SDS011;63518;49.572;1.106;2023-12-20T09:09:00;430.55;;;388.10;;
74959;SDS011;63518;49.572;1.106;2023-12-20T09:11:26;432.13;;;390.00;;
74959;SDS011;63518;49.572;1.106;2023-12-20T09:13:53;435.38;;;392.83;;
74959;SDS011;63518;49.572;1.106;2023-12-20T09:16:20;449.60;;;406.70;;
74959;SDS011;63518;49.572;1.106;2023-12-20T09:18:47;457.60;;;413.88;;
74959;SDS011;63518;49.572;1.106;2023-12-20T09:21:14;383.52;;;346.13;;
74959;SDS011;63518;49.572;1.106;2023-12-20T09:23:40;430.00;;;385.90;;
74959;SDS011;63518;49.572;1.106;2023-12-20T09:26:07;440.58;;;395.50;;
74959;SDS011;63518;49.572;1.106;2023-12-20T09:28:34;450.55;;;405.05;;
74959;SDS011;63518;49.572;1.106;2023-12-20T09:31:04;460.83;;;414.48;;
74959;SDS011;63518;49.572;1.106;2023-12-20T09:33:32;429.17;;;385.30;;
74959;SDS011;63518;49.572;1.106;2023-12-20T09:35:59;424.70;;;379.90;;
74959;SDS011;63518;49.572;1.106;2023-12-20T09:38:26;455.40;;;407.77;;
74959;SDS011;63518;49.572;1.106;2023-12-20T09:40:53;421.10;;;376.80;;
74959;SDS011;63518;49.572;1.106;2023-12-20T09:43:21;440.30;;;395.17;;
74959;SDS011;63518;49.572;1.106;2023-12-20T09:45:52;452.73;;;404.75;;
74959;SDS011;63518;49.572;1.106;2023-12-20T09:48:20;431.88;;;385.80;;
74959;SDS011;63518;49.572;1.106;2023-12-20T09:50:47;419.92;;;372.02;;
74959;SDS011;63518;49.572;1.106;2023-12-20T09:53:19;466.92;;;417.08;;
74959;SDS011;63518;49.572;1.106;2023-12-20T09:58:16;435.67;;;388.88;;
74959;SDS011;63518;49.572;1.106;2023-12-20T10:00:43;456.13;;;406.60;;
74959;SDS011;63518;49.572;1.106;2023-12-20T10:03:10;463.02;;;412.70;;
74959;SDS011;63518;49.572;1.106;2023-12-20T10:08:09;466.20;;;416.50;;
74959;SDS011;63518;49.572;1.106;2023-12-20T10:10:36;452.02;;;402.98;;
74959;SDS011;63518;49.572;1.106;2023-12-20T10:15:40;459.40;;;410.23;;
74959;SDS011;63518;49.572;1.106;2023-12-20T10:18:08;473.75;;;424.17;;
74959;SDS011;63518;49.572;1.106;2023-12-20T10:20:35;461.30;;;411.45;;
74959;SDS011;63518;49.572;1.106;2023-12-20T10:23:03;450.63;;;401.33;;
74959;SDS011;63518;49.572;1.106;2023-12-20T10:25:30;454.70;;;405.23;;
74959;SDS011;63518;49.572;1.106;2023-12-20T10:28:09;459.02;;;409.08;;
74959;SDS011;63518;49.572;1.106;2023-12-20T10:30:38;446.48;;;397.67;;
74959;SDS011;63518;49.572;1.106;2023-12-20T10:33:06;462.58;;;411.55;;
74959;SDS011;63518;49.572;1.106;2023-12-20T10:35:37;485.95;;;433.38;;
74959;SDS011;63518;49.572;1.106;2023-12-20T10:38:10;488.52;;;436.13;;
74959;SDS011;63518;49.572;1.106;2023-12-20T10:40:40;484.67;;;433.15;;
74959;SDS011;63518;49.572;1.106;2023-12-20T10:43:07;479.73;;;429.05;;
74959;SDS011;63518;49.572;1.106;2023-12-20T10:45:35;474.67;;;424.58;;
74959;SDS011;63518;49.572;1.106;2023-12-20T10:48:02;434.50;;;388.17;;
74959;SDS011;63518;49.572;1.106;2023-12-20T10:50:30;455.83;;;407.45;;
74959;SDS011;63518;49.572;1.106;2023-12-20T10:52:58;454.23;;;406.02;;
74959;SDS011;63518;49.572;1.106;2023-12-20T10:55:25;455.10;;;406.20;;
74959;SDS011;63518;49.572;1.106;2023-12-20T10:57:54;441.45;;;393.67;;
74959;SDS011;63518;49.572;1.106;2023-12-20T11:00:38;477.85;;;427.13;;
74959;SDS011;63518;49.572;1.106;2023-12-20T11:03:10;472.17;;;421.33;;
74959;SDS011;63518;49.572;1.106;2023-12-20T11:05:55;448.73;;;398.83;;
74959;SDS011;63518;49.572;1.106;2023-12-20T11:13:40;436.13;;;380.52;;
74959;SDS011;63518;49.572;1.106;2023-12-20T11:16:14;396.02;;;349.85;;
74959;SDS011;63518;49.572;1.106;2023-12-20T11:18:41;381.38;;;331.15;;
74959;SDS011;63518;49.572;1.106;2023-12-20T11:21:09;408.98;;;359.55;;
74959;SDS011;63518;49.572;1.106;2023-12-20T11:23:37;436.60;;;381.50;;
74959;SDS011;63518;49.572;1.106;2023-12-20T11:26:04;4.45;;;1.08;;
74959;SDS011;63518;49.572;1.106;2023-12-20T11:28:30;10.38;;;2.13;;
74959;SDS011;63518;49.572;1.106;2023-12-20T11:30:58;17.80;;;5.57;;
74959;SDS011;63518;49.572;1.106;2023-12-20T11:33:29;39.17;;;12.60;;
74959;SDS011;63518;49.572;1.106;2023-12-20T11:35:58;14.82;;;4.53;;
74959;SDS011;63518;49.572;1.106;2023-12-20T11:38:36;446.88;;;369.50;;
74959;SDS011;63518;49.572;1.106;2023-12-20T11:41:07;455.55;;;384.85;;
74959;SDS011;63518;49.572;1.106;2023-12-20T11:43:37;465.77;;;397.75;;
74959;SDS011;63518;49.572;1.106;2023-12-20T11:46:06;428.80;;;364.08;;
74959;SDS011;63518;49.572;1.106;2023-12-20T11:48:34;446.05;;;364.20;;
74959;SDS011;63518;49.572;1.106;2023-12-20T11:51:13;478.42;;;401.85;;
74959;SDS011;63518;49.572;1.106;2023-12-20T11:53:40;514.17;;;457.70;;
74959;SDS011;63518;49.572;1.106;2023-12-20T11:56:09;499.05;;;442.13;;
74959;SDS011;63518;49.572;1.106;2023-12-20T11:58:36;507.27;;;452.30;;
74959;SDS011;63518;49.572;1.106;2023-12-20T12:01:04;501.20;;;446.75;;
74959;SDS011;63518;49.572;1.106;2023-12-20T12:03:34;506.73;;;452.95;;
74959;SDS011;63518;49.572;1.106;2023-12-20T12:06:02;471.10;;;419.42;;
74959;SDS011;63518;49.572;1.106;2023-12-20T12:08:31;506.33;;;452.25;;
74959;SDS011;63518;49.572;1.106;2023-12-20T12:10:58;443.55;;;396.48;;
74959;SDS011;63518;49.572;1.106;2023-12-20T12:13:25;472.05;;;417.23;;
74959;SDS011;63518;49.572;1.106;2023-12-20T12:15:54;501.58;;;447.42;;
74959;SDS011;63518;49.572;1.106;2023-12-20T12:18:21;493.42;;;440.10;;
74959;SDS011;63518;49.572;1.106;2023-12-20T12:20:48;521.95;;;466.55;;
74959;SDS011;63518;49.572;1.106;2023-12-20T12:23:15;504.50;;;450.48;;
74959;SDS011;63518;49.572;1.106;2023-12-20T12:25:50;468.23;;;416.05;;
74959;SDS011;63518;49.572;1.106;2023-12-20T12:28:16;495.13;;;441.77;;
74959;SDS011;63518;49.572;1.106;2023-12-20T12:30:55;500.38;;;446.10;;
74959;SDS011;63518;49.572;1.106;2023-12-20T12:33:24;338.02;;;304.60;;
74959;SDS011;63518;49.572;1.106;2023-12-20T12:35:54;442.05;;;382.92;;
74959;SDS011;63518;49.572;1.106;2023-12-20T12:38:21;475.42;;;414.70;;
74959;SDS011;63518;49.572;1.106;2023-12-20T12:40:49;505.30;;;450.90;;
74959;SDS011;63518;49.572;1.106;2023-12-20T12:43:17;506.13;;;452.02;;
74959;SDS011;63518;49.572;1.106;2023-12-20T12:45:43;504.25;;;449.83;;
74959;SDS011;63518;49.572;1.106;2023-12-20T12:48:10;528.75;;;472.48;;
74959;SDS011;63518;49.572;1.106;2023-12-20T12:50:37;508.27;;;453.60;;
74959;SDS011;63518;49.572;1.106;2023-12-20T12:53:04;519.38;;;463.40;;
74959;SDS011;63518;49.572;1.106;2023-12-20T12:55:31;542.05;;;484.50;;
74959;SDS011;63518;49.572;1.106;2023-12-20T12:57:59;534.78;;;478.65;;
74959;SDS011;63518;49.572;1.106;2023-12-20T13:00:26;550.92;;;493.50;;
74959;SDS011;63518;49.572;1.106;2023-12-20T13:02:52;1.38;;;0.32;;
74959;SDS011;63518;49.572;1.106;2023-12-20T13:05:19;435.48;;;384.95;;
74959;SDS011;63518;49.572;1.106;2023-12-20T13:07:46;1.70;;;0.47;;
74959;SDS011;63518;49.572;1.106;2023-12-20T13:10:14;2.80;;;0.40;;
74959;SDS011;63518;49.572;1.106;2023-12-20T13:12:44;3.45;;;0.77;;
74959;SDS011;63518;49.572;1.106;2023-12-20T13:15:11;18.88;;;0.70;;
74959;SDS011;63518;49.572;1.106;2023-12-20T13:17:38;3.72;;;1.25;;
74959;SDS011;63518;49.572;1.106;2023-12-20T13:20:06;8.10;;;1.10;;
74959;SDS011;63518;49.572;1.106;2023-12-20T13:22:34;7.18;;;1.42;;
74959;SDS011;63518;49.572;1.106;2023-12-20T13:25:01;1.95;;;0.98;;
74959;SDS011;63518;49.572;1.106;2023-12-20T13:27:29;5.25;;;1.05;;
74959;SDS011;63518;49.572;1.106;2023-12-20T13:29:56;2.10;;;0.50;;
74959;SDS011;63518;49.572;1.106;2023-12-20T13:32:23;3.40;;;0.68;;
74959;SDS011;63518;49.572;1.106;2023-12-20T13:34:50;3.97;;;1.05;;
74959;SDS011;63518;49.572;1.106;2023-12-20T13:37:17;2.67;;;0.73;;
74959;SDS011;63518;49.572;1.106;2023-12-20T13:39:45;434.90;;;387.35;;
74959;SDS011;63518;49.572;1.106;2023-12-20T13:42:12;453.95;;;360.70;;
74959;SDS011;63518;49.572;1.106;2023-12-20T13:44:39;301.23;;;238.25;;
74959;SDS011;63518;49.572;1.106;2023-12-20T13:47:06;324.42;;;253.25;;
74959;SDS011;63518;49.572;1.106;2023-12-20T13:49:32;400.15;;;304.90;;
74959;SDS011;63518;49.572;1.106;2023-12-20T13:51:59;418.70;;;314.63;;
74959;SDS011;63518;49.572;1.106;2023-12-20T13:54:26;452.88;;;335.98;;
74959;SDS011;63518;49.572;1.106;2023-12-20T13:56:53;447.95;;;334.60;;
74959;SDS011;63518;49.572;1.106;2023-12-20T13:59:37;456.05;;;343.13;;
74959;SDS011;63518;49.572;1.106;2023-12-20T14:02:04;464.88;;;348.23;;
74959;SDS011;63518;49.572;1.106;2023-12-20T14:04:31;458.88;;;346.38;;
74959;SDS011;63518;49.572;1.106;2023-12-20T14:07:09;459.65;;;352.00;;
74959;SDS011;63518;49.572;1.106;2023-12-20T14:09:38;466.27;;;351.48;;
74959;SDS011;63518;49.572;1.106;2023-12-20T14:12:06;463.27;;;353.58;;
74959;SDS011;63518;49.572;1.106;2023-12-20T14:14:35;467.45;;;355.75;;